sensor_id;sensor_type;location;lat;lon;timestamp;temperature;humidity
22633;DHT22;11483;55.828;37.488;2024-01-07T00:01:17;-17.20;99.90
22633;DHT22;11483;55.828;37.488;2024-01-07T00:03:43;-17.20;99.90
22633;DHT22;11483;55.828;37.488;2024-01-07T00:06:10;-17.20;99.90
22633;DHT22;11483;55.828;37.488;2024-01-07T00:08:36;-17.30;99.90
22633;DHT22;11483;55.828;37.488;2024-01-07T00:11:02;-17.40;99.90
22633;DHT22;11483;55.828;37.488;2024-01-07T00:13:28;-17.40;99.90
22633;DHT22;11483;55.828;37.488;2024-01-07T00:15:54;-16.60;99.90
22633;DHT22;11483;55.828;37.488;2024-01-07T00:18:21;-17.40;99.90
22633;DHT22;11483;55.828;37.488;2024-01-07T00:20:48;-16.60;99.90
22633;DHT22;11483;55.828;37.488;2024-01-07T00:23:13;-17.40;99.90
22633;DHT22;11483;55.828;37.488;2024-01-07T00:25:39;-17.30;99.90
22633;DHT22;11483;55.828;37.488;2024-01-07T00:28:05;-16.10;99.90
22633;DHT22;11483;55.828;37.488;2024-01-07T00:30:31;-17.40;99.90
22633;DHT22;11483;55.828;37.488;2024-01-07T00:32:57;-17.40;99.90
22633;DHT22;11483;55.828;37.488;2024-01-07T00:35:23;-16.70;99.90
22633;DHT22;11483;55.828;37.488;2024-01-07T00:37:49;-17.40;99.90
22633;DHT22;11483;55.828;37.488;2024-01-07T00:40:18;-17.40;99.90
22633;DHT22;11483;55.828;37.488;2024-01-07T00:42:44;-17.10;99.90
22633;DHT22;11483;55.828;37.488;2024-01-07T00:45:10;-15.70;99.90
22633;DHT22;11483;55.828;37.488;2024-01-07T00:47:36;-17.30;99.90
22633;DHT22;11483;55.828;37.488;2024-01-07T00:50:02;-17.70;99.90
22633;DHT22;11483;55.828;37.488;2024-01-07T00:52:29;-17.70;99.90
22633;DHT22;11483;55.828;37.488;2024-01-07T00:54:55;-17.80;99.90
22633;DHT22;11483;55.828;37.488;2024-01-07T00:57:21;-17.00;99.90
22633;DHT22;11483;55.828;37.488;2024-01-07T00:59:47;-18.00;99.90
22633;DHT22;11483;55.828;37.488;2024-01-07T01:02:13;-18.00;99.90
22633;DHT22;11483;55.828;37.488;2024-01-07T01:04:39;-18.10;99.90
22633;DHT22;11483;55.828;37.488;2024-01-07T01:07:05;-18.20;99.90
22633;DHT22;11483;55.828;37.488;2024-01-07T01:09:33;-18.30;99.90
22633;DHT22;11483;55.828;37.488;2024-01-07T01:11:59;-18.40;99.90
22633;DHT22;11483;55.828;37.488;2024-01-07T01:14:25;-18.10;99.90
22633;DHT22;11483;55.828;37.488;2024-01-07T01:16:51;-18.30;99.90
22633;DHT22;11483;55.828;37.488;2024-01-07T01:19:18;-17.10;99.90
22633;DHT22;11483;55.828;37.488;2024-01-07T01:21:44;-18.60;99.90
22633;DHT22;11483;55.828;37.488;2024-01-07T01:24:09;-18.60;99.90
22633;DHT22;11483;55.828;37.488;2024-01-07T01:26:36;-18.60;99.90
22633;DHT22;11483;55.828;37.488;2024-01-07T01:29:02;-18.70;99.90
22633;DHT22;11483;55.828;37.488;2024-01-07T01:31:28;-18.20;99.90
22633;DHT22;11483;55.828;37.488;2024-01-07T01:33:53;-18.80;99.90
22633;DHT22;11483;55.828;37.488;2024-01-07T01:36:19;-18.90;99.90
22633;DHT22;11483;55.828;37.488;2024-01-07T01:38:45;-18.00;99.90
22633;DHT22;11483;55.828;37.488;2024-01-07T01:41:11;-19.00;99.90
22633;DHT22;11483;55.828;37.488;2024-01-07T01:43:37;-18.10;99.90
22633;DHT22;11483;55.828;37.488;2024-01-07T01:46:03;-19.10;99.90
22633;DHT22;11483;55.828;37.488;2024-01-07T01:48:29;-19.10;99.90
22633;DHT22;11483;55.828;37.488;2024-01-07T01:50:55;-19.20;99.90
22633;DHT22;11483;55.828;37.488;2024-01-07T01:53:24;-19.30;99.90
22633;DHT22;11483;55.828;37.488;2024-01-07T01:55:52;-19.40;99.90
22633;DHT22;11483;55.828;37.488;2024-01-07T01:58:19;-19.50;99.90
22633;DHT22;11483;55.828;37.488;2024-01-07T02:00:46;-19.60;99.90
22633;DHT22;11483;55.828;37.488;2024-01-07T02:03:12;-19.60;99.90
22633;DHT22;11483;55.828;37.488;2024-01-07T02:05:38;-19.60;99.90
22633;DHT22;11483;55.828;37.488;2024-01-07T02:08:04;-19.70;99.90
22633;DHT22;11483;55.828;37.488;2024-01-07T02:10:31;-19.80;99.90
22633;DHT22;11483;55.828;37.488;2024-01-07T02:13:00;-19.80;99.90
22633;DHT22;11483;55.828;37.488;2024-01-07T02:15:26;-18.50;99.90
22633;DHT22;11483;55.828;37.488;2024-01-07T02:17:52;-19.80;99.90
22633;DHT22;11483;55.828;37.488;2024-01-07T02:20:18;-19.90;99.90
22633;DHT22;11483;55.828;37.488;2024-01-07T02:22:44;-19.90;99.90
22633;DHT22;11483;55.828;37.488;2024-01-07T02:25:10;-19.90;99.90
22633;DHT22;11483;55.828;37.488;2024-01-07T02:27:36;-20.00;99.90
22633;DHT22;11483;55.828;37.488;2024-01-07T02:30:02;-20.00;99.90
22633;DHT22;11483;55.828;37.488;2024-01-07T02:32:28;-20.00;99.90
22633;DHT22;11483;55.828;37.488;2024-01-07T02:34:58;-20.10;99.90
22633;DHT22;11483;55.828;37.488;2024-01-07T02:37:24;-20.10;99.90
22633;DHT22;11483;55.828;37.488;2024-01-07T02:39:50;-20.10;99.90
22633;DHT22;11483;55.828;37.488;2024-01-07T02:42:15;-20.10;99.90
22633;DHT22;11483;55.828;37.488;2024-01-07T02:44:41;-20.30;99.90
22633;DHT22;11483;55.828;37.488;2024-01-07T02:47:07;-20.30;99.90
22633;DHT22;11483;55.828;37.488;2024-01-07T02:49:33;-20.40;99.90
22633;DHT22;11483;55.828;37.488;2024-01-07T02:51:59;-20.40;99.90
22633;DHT22;11483;55.828;37.488;2024-01-07T02:54:25;-20.30;99.90
22633;DHT22;11483;55.828;37.488;2024-01-07T02:56:51;-20.40;99.90
22633;DHT22;11483;55.828;37.488;2024-01-07T02:59:16;-20.30;99.90
22633;DHT22;11483;55.828;37.488;2024-01-07T03:01:42;-20.40;99.90
22633;DHT22;11483;55.828;37.488;2024-01-07T03:04:10;-20.30;99.90
22633;DHT22;11483;55.828;37.488;2024-01-07T03:06:36;-20.40;99.90
22633;DHT22;11483;55.828;37.488;2024-01-07T03:09:02;-19.80;99.90
22633;DHT22;11483;55.828;37.488;2024-01-07T03:11:28;-20.30;99.90
22633;DHT22;11483;55.828;37.488;2024-01-07T03:13:55;-20.20;99.90
22633;DHT22;11483;55.828;37.488;2024-01-07T03:16:22;-19.30;99.90
22633;DHT22;11483;55.828;37.488;2024-01-07T03:18:49;-20.10;99.90
22633;DHT22;11483;55.828;37.488;2024-01-07T03:21:21;-20.10;99.90
22633;DHT22;11483;55.828;37.488;2024-01-07T03:23:48;-20.10;99.90
22633;DHT22;11483;55.828;37.488;2024-01-07T03:26:15;-20.10;99.90
22633;DHT22;11483;55.828;37.488;2024-01-07T03:28:41;-20.20;99.90
22633;DHT22;11483;55.828;37.488;2024-01-07T03:31:13;-20.30;99.90
22633;DHT22;11483;55.828;37.488;2024-01-07T03:33:39;-19.20;99.90
22633;DHT22;11483;55.828;37.488;2024-01-07T03:36:10;-20.30;99.90
22633;DHT22;11483;55.828;37.488;2024-01-07T03:38:39;-20.40;99.90
22633;DHT22;11483;55.828;37.488;2024-01-07T03:41:06;-20.40;99.90
22633;DHT22;11483;55.828;37.488;2024-01-07T03:43:32;-20.50;99.90
22633;DHT22;11483;55.828;37.488;2024-01-07T03:45:58;-20.60;99.90
22633;DHT22;11483;55.828;37.488;2024-01-07T03:48:25;-20.70;99.90
22633;DHT22;11483;55.828;37.488;2024-01-07T03:50:51;-20.80;99.90
22633;DHT22;11483;55.828;37.488;2024-01-07T03:53:19;-20.80;99.90
22633;DHT22;11483;55.828;37.488;2024-01-07T03:55:45;-21.00;99.90
22633;DHT22;11483;55.828;37.488;2024-01-07T03:58:11;-21.00;99.90
22633;DHT22;11483;55.828;37.488;2024-01-07T04:00:36;-21.00;99.90
22633;DHT22;11483;55.828;37.488;2024-01-07T04:03:06;-21.10;99.90
22633;DHT22;11483;55.828;37.488;2024-01-07T04:05:31;-21.10;99.90
22633;DHT22;11483;55.828;37.488;2024-01-07T04:08:00;-21.20;99.90
22633;DHT22;11483;55.828;37.488;2024-01-07T04:10:27;-21.30;99.90
22633;DHT22;11483;55.828;37.488;2024-01-07T04:12:53;-21.20;99.90
22633;DHT22;11483;55.828;37.488;2024-01-07T04:15:18;-21.40;99.90
22633;DHT22;11483;55.828;37.488;2024-01-07T04:17:44;-20.50;99.90
22633;DHT22;11483;55.828;37.488;2024-01-07T04:20:13;-21.30;99.90
22633;DHT22;11483;55.828;37.488;2024-01-07T04:22:39;-20.10;99.90
22633;DHT22;11483;55.828;37.488;2024-01-07T04:25:06;-21.20;99.90
22633;DHT22;11483;55.828;37.488;2024-01-07T04:27:36;-21.20;99.90
22633;DHT22;11483;55.828;37.488;2024-01-07T04:30:03;-21.20;99.90
22633;DHT22;11483;55.828;37.488;2024-01-07T04:32:30;-21.20;99.90
22633;DHT22;11483;55.828;37.488;2024-01-07T04:34:56;-21.20;99.90
22633;DHT22;11483;55.828;37.488;2024-01-07T04:37:24;-21.20;99.90
22633;DHT22;11483;55.828;37.488;2024-01-07T04:39:50;-21.30;99.90
22633;DHT22;11483;55.828;37.488;2024-01-07T04:42:17;-21.30;99.90
22633;DHT22;11483;55.828;37.488;2024-01-07T04:44:43;-21.30;99.90
22633;DHT22;11483;55.828;37.488;2024-01-07T04:47:30;-21.30;99.90
22633;DHT22;11483;55.828;37.488;2024-01-07T04:49:57;-21.20;99.90
22633;DHT22;11483;55.828;37.488;2024-01-07T04:52:23;-21.20;99.90
22633;DHT22;11483;55.828;37.488;2024-01-07T04:54:53;-21.30;99.90
22633;DHT22;11483;55.828;37.488;2024-01-07T04:57:20;-21.30;99.90
22633;DHT22;11483;55.828;37.488;2024-01-07T04:59:50;-21.40;99.90
22633;DHT22;11483;55.828;37.488;2024-01-07T05:02:16;-21.40;99.90
22633;DHT22;11483;55.828;37.488;2024-01-07T05:04:42;-21.50;99.90
22633;DHT22;11483;55.828;37.488;2024-01-07T05:07:08;-21.60;99.90
22633;DHT22;11483;55.828;37.488;2024-01-07T05:09:34;-21.70;99.90
22633;DHT22;11483;55.828;37.488;2024-01-07T05:12:00;-21.70;99.90
22633;DHT22;11483;55.828;37.488;2024-01-07T05:14:27;-21.80;99.90
22633;DHT22;11483;55.828;37.488;2024-01-07T05:16:56;-21.80;99.90
22633;DHT22;11483;55.828;37.488;2024-01-07T05:19:22;-21.80;99.90
22633;DHT22;11483;55.828;37.488;2024-01-07T05:21:48;-21.80;99.90
22633;DHT22;11483;55.828;37.488;2024-01-07T05:24:14;-21.70;99.90
22633;DHT22;11483;55.828;37.488;2024-01-07T05:26:41;-21.70;99.90
22633;DHT22;11483;55.828;37.488;2024-01-07T05:29:08;-21.60;99.90
22633;DHT22;11483;55.828;37.488;2024-01-07T05:31:34;-21.60;99.90
22633;DHT22;11483;55.828;37.488;2024-01-07T05:34:00;-21.50;99.90
22633;DHT22;11483;55.828;37.488;2024-01-07T05:36:26;-21.60;99.90
22633;DHT22;11483;55.828;37.488;2024-01-07T05:38:51;-21.60;99.90
22633;DHT22;11483;55.828;37.488;2024-01-07T05:41:17;-21.60;99.90
22633;DHT22;11483;55.828;37.488;2024-01-07T05:43:43;-21.60;99.90
22633;DHT22;11483;55.828;37.488;2024-01-07T05:46:09;-21.60;99.90
22633;DHT22;11483;55.828;37.488;2024-01-07T05:48:42;-21.60;99.90
22633;DHT22;11483;55.828;37.488;2024-01-07T05:51:09;-21.60;99.90
22633;DHT22;11483;55.828;37.488;2024-01-07T05:53:34;-21.60;99.90
22633;DHT22;11483;55.828;37.488;2024-01-07T05:56:00;-21.70;99.90
22633;DHT22;11483;55.828;37.488;2024-01-07T05:58:26;-21.90;99.90
22633;DHT22;11483;55.828;37.488;2024-01-07T06:00:52;-21.90;99.90
22633;DHT22;11483;55.828;37.488;2024-01-07T06:03:18;-22.00;99.90
22633;DHT22;11483;55.828;37.488;2024-01-07T06:05:44;-22.10;99.90
22633;DHT22;11483;55.828;37.488;2024-01-07T06:08:10;-22.20;99.90
22633;DHT22;11483;55.828;37.488;2024-01-07T06:10:36;-22.20;99.90
22633;DHT22;11483;55.828;37.488;2024-01-07T06:13:02;-22.30;99.90
22633;DHT22;11483;55.828;37.488;2024-01-07T06:15:29;-21.20;99.90
22633;DHT22;11483;55.828;37.488;2024-01-07T06:17:55;-22.20;99.90
22633;DHT22;11483;55.828;37.488;2024-01-07T06:20:21;-22.20;99.90
22633;DHT22;11483;55.828;37.488;2024-01-07T06:22:47;-22.20;99.90
22633;DHT22;11483;55.828;37.488;2024-01-07T06:25:13;-22.10;99.90
22633;DHT22;11483;55.828;37.488;2024-01-07T06:27:39;-21.50;99.90
22633;DHT22;11483;55.828;37.488;2024-01-07T06:30:06;-22.10;99.90
22633;DHT22;11483;55.828;37.488;2024-01-07T06:32:32;-22.10;99.90
22633;DHT22;11483;55.828;37.488;2024-01-07T06:34:58;-22.00;99.90
22633;DHT22;11483;55.828;37.488;2024-01-07T06:37:24;-22.00;99.90
22633;DHT22;11483;55.828;37.488;2024-01-07T06:39:51;-22.00;99.90
22633;DHT22;11483;55.828;37.488;2024-01-07T06:42:18;-22.00;99.90
22633;DHT22;11483;55.828;37.488;2024-01-07T06:44:44;-22.00;99.90
22633;DHT22;11483;55.828;37.488;2024-01-07T06:47:10;-22.00;99.90
22633;DHT22;11483;55.828;37.488;2024-01-07T06:49:36;-22.00;99.90
22633;DHT22;11483;55.828;37.488;2024-01-07T06:52:02;-22.00;99.90
22633;DHT22;11483;55.828;37.488;2024-01-07T06:54:27;-22.00;99.90
22633;DHT22;11483;55.828;37.488;2024-01-07T06:56:53;-21.90;99.90
22633;DHT22;11483;55.828;37.488;2024-01-07T06:59:19;-21.90;99.90
22633;DHT22;11483;55.828;37.488;2024-01-07T07:01:45;-21.80;99.90
22633;DHT22;11483;55.828;37.488;2024-01-07T07:04:11;-21.70;99.90
22633;DHT22;11483;55.828;37.488;2024-01-07T07:06:37;-21.70;99.90
22633;DHT22;11483;55.828;37.488;2024-01-07T07:09:03;-21.60;99.90
22633;DHT22;11483;55.828;37.488;2024-01-07T07:11:29;-21.60;99.90
22633;DHT22;11483;55.828;37.488;2024-01-07T07:13:55;-21.50;99.90
22633;DHT22;11483;55.828;37.488;2024-01-07T07:16:22;-20.20;99.90
22633;DHT22;11483;55.828;37.488;2024-01-07T07:18:48;-21.20;99.90
22633;DHT22;11483;55.828;37.488;2024-01-07T07:21:14;-19.90;99.90
22633;DHT22;11483;55.828;37.488;2024-01-07T07:23:40;-21.10;99.90
22633;DHT22;11483;55.828;37.488;2024-01-07T07:26:05;-20.90;99.90
22633;DHT22;11483;55.828;37.488;2024-01-07T07:28:32;-20.90;99.90
22633;DHT22;11483;55.828;37.488;2024-01-07T07:30:58;-20.90;99.90
22633;DHT22;11483;55.828;37.488;2024-01-07T07:33:24;-20.70;99.90
22633;DHT22;11483;55.828;37.488;2024-01-07T07:35:50;-20.50;99.90
22633;DHT22;11483;55.828;37.488;2024-01-07T07:38:16;-20.50;99.90
22633;DHT22;11483;55.828;37.488;2024-01-07T07:40:42;-20.40;99.90
22633;DHT22;11483;55.828;37.488;2024-01-07T07:43:09;-20.40;99.90
22633;DHT22;11483;55.828;37.488;2024-01-07T07:45:35;-20.30;99.90
22633;DHT22;11483;55.828;37.488;2024-01-07T07:48:01;-20.20;99.90
22633;DHT22;11483;55.828;37.488;2024-01-07T07:50:27;-20.10;99.90
22633;DHT22;11483;55.828;37.488;2024-01-07T07:52:53;-20.10;99.90
22633;DHT22;11483;55.828;37.488;2024-01-07T07:55:19;-20.10;99.90
22633;DHT22;11483;55.828;37.488;2024-01-07T07:57:45;-19.90;99.90
22633;DHT22;11483;55.828;37.488;2024-01-07T08:00:12;-19.00;99.90
22633;DHT22;11483;55.828;37.488;2024-01-07T08:02:38;-18.50;99.90
22633;DHT22;11483;55.828;37.488;2024-01-07T08:05:06;-16.80;99.90
22633;DHT22;11483;55.828;37.488;2024-01-07T08:07:32;-17.30;99.90
22633;DHT22;11483;55.828;37.488;2024-01-07T08:09:58;-17.80;99.90
22633;DHT22;11483;55.828;37.488;2024-01-07T08:12:24;-17.00;99.90
22633;DHT22;11483;55.828;37.488;2024-01-07T08:14:50;-18.90;99.90
22633;DHT22;11483;55.828;37.488;2024-01-07T08:17:16;-19.40;99.90
22633;DHT22;11483;55.828;37.488;2024-01-07T08:19:42;-19.90;99.90
22633;DHT22;11483;55.828;37.488;2024-01-07T08:22:08;-20.20;99.90
22633;DHT22;11483;55.828;37.488;2024-01-07T08:24:35;-20.30;99.90
22633;DHT22;11483;55.828;37.488;2024-01-07T08:27:01;-20.40;99.90
22633;DHT22;11483;55.828;37.488;2024-01-07T08:29:28;-20.40;99.90
22633;DHT22;11483;55.828;37.488;2024-01-07T08:31:54;-20.40;99.90
22633;DHT22;11483;55.828;37.488;2024-01-07T08:34:20;-20.40;99.90
22633;DHT22;11483;55.828;37.488;2024-01-07T08:36:46;-20.40;99.90
22633;DHT22;11483;55.828;37.488;2024-01-07T08:39:14;-20.50;99.90
22633;DHT22;11483;55.828;37.488;2024-01-07T08:41:40;-20.50;99.90
22633;DHT22;11483;55.828;37.488;2024-01-07T08:44:07;-20.50;99.90
22633;DHT22;11483;55.828;37.488;2024-01-07T08:46:36;-20.40;99.90
22633;DHT22;11483;55.828;37.488;2024-01-07T08:49:02;-20.30;99.90
22633;DHT22;11483;55.828;37.488;2024-01-07T08:51:28;-20.30;99.90
22633;DHT22;11483;55.828;37.488;2024-01-07T08:53:58;-20.30;99.90
22633;DHT22;11483;55.828;37.488;2024-01-07T08:56:24;-20.30;99.90
22633;DHT22;11483;55.828;37.488;2024-01-07T08:58:51;-20.30;99.90
22633;DHT22;11483;55.828;37.488;2024-01-07T09:01:17;-20.20;99.90
22633;DHT22;11483;55.828;37.488;2024-01-07T09:03:43;-20.00;99.90
22633;DHT22;11483;55.828;37.488;2024-01-07T09:06:09;-19.00;99.90
22633;DHT22;11483;55.828;37.488;2024-01-07T09:08:35;-19.90;99.90
22633;DHT22;11483;55.828;37.488;2024-01-07T09:11:03;-19.90;99.90
22633;DHT22;11483;55.828;37.488;2024-01-07T09:13:29;-19.80;99.90
22633;DHT22;11483;55.828;37.488;2024-01-07T09:15:55;-19.70;99.90
22633;DHT22;11483;55.828;37.488;2024-01-07T09:18:21;-19.50;99.90
22633;DHT22;11483;55.828;37.488;2024-01-07T09:20:47;-19.60;99.90
22633;DHT22;11483;55.828;37.488;2024-01-07T09:23:13;-19.50;99.90
22633;DHT22;11483;55.828;37.488;2024-01-07T09:25:41;-19.50;99.90
22633;DHT22;11483;55.828;37.488;2024-01-07T09:28:07;-19.50;99.90
22633;DHT22;11483;55.828;37.488;2024-01-07T09:30:33;-19.40;99.90
22633;DHT22;11483;55.828;37.488;2024-01-07T09:32:59;-18.60;99.90
22633;DHT22;11483;55.828;37.488;2024-01-07T09:35:26;-18.50;99.90
22633;DHT22;11483;55.828;37.488;2024-01-07T09:37:52;-19.30;99.90
22633;DHT22;11483;55.828;37.488;2024-01-07T09:40:18;-19.30;99.90
22633;DHT22;11483;55.828;37.488;2024-01-07T09:42:47;-19.30;99.90
22633;DHT22;11483;55.828;37.488;2024-01-07T09:45:14;-19.30;99.90
22633;DHT22;11483;55.828;37.488;2024-01-07T09:47:41;-19.20;99.90
22633;DHT22;11483;55.828;37.488;2024-01-07T09:50:12;-19.00;99.90
22633;DHT22;11483;55.828;37.488;2024-01-07T09:52:43;-19.20;99.90
22633;DHT22;11483;55.828;37.488;2024-01-07T09:55:14;-19.20;99.90
22633;DHT22;11483;55.828;37.488;2024-01-07T09:57:44;-18.00;99.90
22633;DHT22;11483;55.828;37.488;2024-01-07T10:00:12;-17.80;99.90
22633;DHT22;11483;55.828;37.488;2024-01-07T10:02:39;-17.70;99.90
22633;DHT22;11483;55.828;37.488;2024-01-07T10:05:07;-17.40;99.90
22633;DHT22;11483;55.828;37.488;2024-01-07T10:07:33;-17.40;99.90
22633;DHT22;11483;55.828;37.488;2024-01-07T10:10:13;-17.40;99.90
22633;DHT22;11483;55.828;37.488;2024-01-07T10:12:39;-17.70;99.90
22633;DHT22;11483;55.828;37.488;2024-01-07T10:15:05;-16.10;99.90
22633;DHT22;11483;55.828;37.488;2024-01-07T10:17:31;-15.90;99.90
22633;DHT22;11483;55.828;37.488;2024-01-07T10:19:57;-14.60;99.90
22633;DHT22;11483;55.828;37.488;2024-01-07T10:22:23;-13.80;99.90
22633;DHT22;11483;55.828;37.488;2024-01-07T10:24:51;-13.20;99.90
22633;DHT22;11483;55.828;37.488;2024-01-07T10:27:17;-12.80;98.60
22633;DHT22;11483;55.828;37.488;2024-01-07T10:29:43;-12.20;97.50
22633;DHT22;11483;55.828;37.488;2024-01-07T10:32:15;-12.00;95.60
22633;DHT22;11483;55.828;37.488;2024-01-07T10:34:44;-12.00;94.30
22633;DHT22;11483;55.828;37.488;2024-01-07T10:37:13;-11.90;92.80
22633;DHT22;11483;55.828;37.488;2024-01-07T10:39:38;-11.50;92.80
22633;DHT22;11483;55.828;37.488;2024-01-07T10:42:04;-11.20;91.60
22633;DHT22;11483;55.828;37.488;2024-01-07T10:44:32;-10.70;92.00
22633;DHT22;11483;55.828;37.488;2024-01-07T10:46:59;-10.30;91.30
22633;DHT22;11483;55.828;37.488;2024-01-07T10:49:27;-10.00;91.20
22633;DHT22;11483;55.828;37.488;2024-01-07T10:52:04;-9.70;90.20
22633;DHT22;11483;55.828;37.488;2024-01-07T10:54:32;-9.50;88.70
22633;DHT22;11483;55.828;37.488;2024-01-07T10:59:41;-9.60;86.20
22633;DHT22;11483;55.828;37.488;2024-01-07T11:02:09;-9.80;84.40
22633;DHT22;11483;55.828;37.488;2024-01-07T11:07:39;-9.80;82.50
22633;DHT22;11483;55.828;37.488;2024-01-07T11:12:57;-10.00;81.30
22633;DHT22;11483;55.828;37.488;2024-01-07T11:18:19;-10.20;81.70
22633;DHT22;11483;55.828;37.488;2024-01-07T11:20:46;-10.00;82.20
22633;DHT22;11483;55.828;37.488;2024-01-07T11:23:33;-10.10;82.70
22633;DHT22;11483;55.828;37.488;2024-01-07T11:26:03;-9.90;82.40
22633;DHT22;11483;55.828;37.488;2024-01-07T11:28:51;-10.00;82.40
22633;DHT22;11483;55.828;37.488;2024-01-07T11:31:19;-9.60;83.70
22633;DHT22;11483;55.828;37.488;2024-01-07T11:33:50;-9.70;81.80
22633;DHT22;11483;55.828;37.488;2024-01-07T11:36:17;-9.90;80.30
22633;DHT22;11483;55.828;37.488;2024-01-07T11:38:45;-10.00;80.30
22633;DHT22;11483;55.828;37.488;2024-01-07T11:41:14;-10.00;81.50
22633;DHT22;11483;55.828;37.488;2024-01-07T11:43:57;-10.10;81.00
22633;DHT22;11483;55.828;37.488;2024-01-07T11:46:28;-10.30;80.60
22633;DHT22;11483;55.828;37.488;2024-01-07T11:48:57;-10.10;81.80
22633;DHT22;11483;55.828;37.488;2024-01-07T11:51:30;-10.00;82.20
22633;DHT22;11483;55.828;37.488;2024-01-07T11:54:00;-9.60;83.40
22633;DHT22;11483;55.828;37.488;2024-01-07T11:56:27;-9.40;82.50
22633;DHT22;11483;55.828;37.488;2024-01-07T11:58:54;-9.50;81.50
22633;DHT22;11483;55.828;37.488;2024-01-07T12:01:21;-10.00;80.00
22633;DHT22;11483;55.828;37.488;2024-01-07T12:03:48;-10.20;80.90
22633;DHT22;11483;55.828;37.488;2024-01-07T12:06:14;-10.20;82.30
22633;DHT22;11483;55.828;37.488;2024-01-07T12:08:44;-10.20;80.90
22633;DHT22;11483;55.828;37.488;2024-01-07T12:11:14;-10.00;82.00
22633;DHT22;11483;55.828;37.488;2024-01-07T12:13:40;-10.00;82.90
22633;DHT22;11483;55.828;37.488;2024-01-07T12:16:08;-9.90;82.10
22633;DHT22;11483;55.828;37.488;2024-01-07T12:18:36;-9.90;81.30
22633;DHT22;11483;55.828;37.488;2024-01-07T12:21:03;-10.10;80.60
22633;DHT22;11483;55.828;37.488;2024-01-07T12:23:34;-10.10;82.80
22633;DHT22;11483;55.828;37.488;2024-01-07T12:26:09;-10.80;82.20
22633;DHT22;11483;55.828;37.488;2024-01-07T12:28:36;-10.00;83.10
22633;DHT22;11483;55.828;37.488;2024-01-07T12:31:06;-10.00;83.00
22633;DHT22;11483;55.828;37.488;2024-01-07T12:33:32;-10.30;82.40
22633;DHT22;11483;55.828;37.488;2024-01-07T12:35:59;-10.50;83.20
22633;DHT22;11483;55.828;37.488;2024-01-07T12:38:29;-10.80;83.10
22633;DHT22;11483;55.828;37.488;2024-01-07T12:40:56;-11.20;83.30
22633;DHT22;11483;55.828;37.488;2024-01-07T12:43:22;-11.80;83.30
22633;DHT22;11483;55.828;37.488;2024-01-07T12:45:48;-12.20;83.90
22633;DHT22;11483;55.828;37.488;2024-01-07T12:48:14;-12.60;84.40
22633;DHT22;11483;55.828;37.488;2024-01-07T12:50:41;-13.20;85.30
22633;DHT22;11483;55.828;37.488;2024-01-07T12:53:07;-13.70;86.30
22633;DHT22;11483;55.828;37.488;2024-01-07T12:55:34;-14.10;87.80
22633;DHT22;11483;55.828;37.488;2024-01-07T12:58:01;-14.40;88.20
22633;DHT22;11483;55.828;37.488;2024-01-07T13:00:27;-15.30;88.90
22633;DHT22;11483;55.828;37.488;2024-01-07T13:02:54;-15.70;90.50
22633;DHT22;11483;55.828;37.488;2024-01-07T13:05:20;-14.60;91.50
22633;DHT22;11483;55.828;37.488;2024-01-07T13:07:49;-16.40;91.70
22633;DHT22;11483;55.828;37.488;2024-01-07T13:10:15;-16.50;92.90
22633;DHT22;11483;55.828;37.488;2024-01-07T13:12:42;-16.20;94.40
22633;DHT22;11483;55.828;37.488;2024-01-07T13:15:08;-17.50;95.20
22633;DHT22;11483;55.828;37.488;2024-01-07T13:17:34;-17.70;96.30
22633;DHT22;11483;55.828;37.488;2024-01-07T13:20:00;-17.20;98.00
22633;DHT22;11483;55.828;37.488;2024-01-07T13:22:26;-16.70;99.20
22633;DHT22;11483;55.828;37.488;2024-01-07T13:24:52;-18.10;99.50
22633;DHT22;11483;55.828;37.488;2024-01-07T13:27:21;-17.20;99.90
22633;DHT22;11483;55.828;37.488;2024-01-07T13:29:49;-17.00;99.90
22633;DHT22;11483;55.828;37.488;2024-01-07T13:32:14;-17.80;99.90
22633;DHT22;11483;55.828;37.488;2024-01-07T13:34:43;-18.20;99.90
22633;DHT22;11483;55.828;37.488;2024-01-07T13:37:09;-18.20;99.90
22633;DHT22;11483;55.828;37.488;2024-01-07T13:39:36;-18.40;99.90
22633;DHT22;11483;55.828;37.488;2024-01-07T13:42:02;-17.10;99.90
22633;DHT22;11483;55.828;37.488;2024-01-07T13:44:28;-18.60;99.90
22633;DHT22;11483;55.828;37.488;2024-01-07T13:46:54;-18.70;99.90
22633;DHT22;11483;55.828;37.488;2024-01-07T13:49:20;-18.80;99.90
22633;DHT22;11483;55.828;37.488;2024-01-07T13:51:46;-18.90;99.90
22633;DHT22;11483;55.828;37.488;2024-01-07T13:54:12;-18.90;99.90
22633;DHT22;11483;55.828;37.488;2024-01-07T13:56:43;-19.00;99.90
22633;DHT22;11483;55.828;37.488;2024-01-07T13:59:11;-19.00;99.90
22633;DHT22;11483;55.828;37.488;2024-01-07T14:01:37;-18.30;99.90
22633;DHT22;11483;55.828;37.488;2024-01-07T14:04:03;-19.00;99.90
22633;DHT22;11483;55.828;37.488;2024-01-07T14:06:30;-19.00;99.90
22633;DHT22;11483;55.828;37.488;2024-01-07T14:08:56;-17.90;99.90
22633;DHT22;11483;55.828;37.488;2024-01-07T14:11:22;-19.10;99.90
22633;DHT22;11483;55.828;37.488;2024-01-07T14:13:51;-19.10;99.90
22633;DHT22;11483;55.828;37.488;2024-01-07T14:16:17;-18.00;99.90
22633;DHT22;11483;55.828;37.488;2024-01-07T14:18:43;-19.10;99.90
22633;DHT22;11483;55.828;37.488;2024-01-07T14:21:09;-19.10;99.90
22633;DHT22;11483;55.828;37.488;2024-01-07T14:23:35;-19.10;99.90
22633;DHT22;11483;55.828;37.488;2024-01-07T14:26:01;-19.10;99.90
22633;DHT22;11483;55.828;37.488;2024-01-07T14:28:28;-18.30;99.90
22633;DHT22;11483;55.828;37.488;2024-01-07T14:30:53;-19.30;99.90
22633;DHT22;11483;55.828;37.488;2024-01-07T14:33:19;-19.30;99.90
22633;DHT22;11483;55.828;37.488;2024-01-07T14:35:45;-18.20;99.90
22633;DHT22;11483;55.828;37.488;2024-01-07T14:38:11;-19.30;99.90
22633;DHT22;11483;55.828;37.488;2024-01-07T14:40:37;-19.30;99.90
22633;DHT22;11483;55.828;37.488;2024-01-07T14:43:03;-18.50;99.90
22633;DHT22;11483;55.828;37.488;2024-01-07T14:45:29;-19.30;99.90
22633;DHT22;11483;55.828;37.488;2024-01-07T14:47:55;-19.40;99.90
22633;DHT22;11483;55.828;37.488;2024-01-07T14:50:21;-19.40;99.90
22633;DHT22;11483;55.828;37.488;2024-01-07T14:52:47;-19.50;99.90
22633;DHT22;11483;55.828;37.488;2024-01-07T14:55:13;-19.50;99.90
22633;DHT22;11483;55.828;37.488;2024-01-07T14:57:40;-19.60;99.90
22633;DHT22;11483;55.828;37.488;2024-01-07T15:00:07;-19.50;99.90
22633;DHT22;11483;55.828;37.488;2024-01-07T15:02:34;-19.60;99.90
22633;DHT22;11483;55.828;37.488;2024-01-07T15:05:01;-18.80;99.90
22633;DHT22;11483;55.828;37.488;2024-01-07T15:07:27;-19.70;99.90
22633;DHT22;11483;55.828;37.488;2024-01-07T15:09:53;-19.70;99.90
22633;DHT22;11483;55.828;37.488;2024-01-07T15:12:18;-19.50;99.90